sensor_id;sensor_type;location;lat;lon;timestamp;P1;durP1;ratioP1;P2;durP2;ratioP2
52888;SDS011;41413;52.770;6.892;2023-04-23T00:01:59;35.72;;;32.05;;
52888;SDS011;41413;52.770;6.892;2023-04-23T00:04:27;36.30;;;32.60;;
52888;SDS011;41413;52.770;6.892;2023-04-23T00:06:56;34.92;;;31.60;;
52888;SDS011;41413;52.770;6.892;2023-04-23T00:09:25;38.28;;;34.47;;
52888;SDS011;41413;52.770;6.892;2023-04-23T00:11:53;35.97;;;32.50;;
52888;SDS011;41413;52.770;6.892;2023-04-23T00:14:20;35.13;;;31.73;;
52888;SDS011;41413;52.770;6.892;2023-04-23T00:16:47;35.13;;;31.90;;
52888;SDS011;41413;52.770;6.892;2023-04-23T00:19:14;34.92;;;31.40;;
52888;SDS011;41413;52.770;6.892;2023-04-23T00:21:41;34.47;;;31.27;;
52888;SDS011;41413;52.770;6.892;2023-04-23T00:24:07;34.60;;;30.92;;
52888;SDS011;41413;52.770;6.892;2023-04-23T00:26:34;36.65;;;33.30;;
52888;SDS011;41413;52.770;6.892;2023-04-23T00:29:01;36.92;;;33.25;;
52888;SDS011;41413;52.770;6.892;2023-04-23T00:31:28;36.67;;;31.63;;
52888;SDS011;41413;52.770;6.892;2023-04-23T00:33:54;34.40;;;31.27;;
52888;SDS011;41413;52.770;6.892;2023-04-23T00:36:21;35.67;;;32.22;;
52888;SDS011;41413;52.770;6.892;2023-04-23T00:38:48;34.97;;;31.42;;
52888;SDS011;41413;52.770;6.892;2023-04-23T00:41:15;34.65;;;31.27;;
52888;SDS011;41413;52.770;6.892;2023-04-23T00:43:42;35.33;;;31.67;;
52888;SDS011;41413;52.770;6.892;2023-04-23T00:46:09;35.70;;;32.22;;
52888;SDS011;41413;52.770;6.892;2023-04-23T00:48:36;36.28;;;32.78;;
52888;SDS011;41413;52.770;6.892;2023-04-23T00:51:05;36.75;;;33.22;;
52888;SDS011;41413;52.770;6.892;2023-04-23T00:53:32;38.83;;;35.00;;
52888;SDS011;41413;52.770;6.892;2023-04-23T00:55:59;39.42;;;35.60;;
52888;SDS011;41413;52.770;6.892;2023-04-23T00:58:28;40.42;;;36.22;;
52888;SDS011;41413;52.770;6.892;2023-04-23T01:00:55;43.50;;;39.13;;
52888;SDS011;41413;52.770;6.892;2023-04-23T01:03:22;41.50;;;37.42;;
52888;SDS011;41413;52.770;6.892;2023-04-23T01:05:49;44.13;;;39.63;;
52888;SDS011;41413;52.770;6.892;2023-04-23T01:08:17;44.17;;;39.55;;
52888;SDS011;41413;52.770;6.892;2023-04-23T01:10:44;42.63;;;38.40;;
52888;SDS011;41413;52.770;6.892;2023-04-23T01:13:12;44.08;;;39.60;;
52888;SDS011;41413;52.770;6.892;2023-04-23T01:15:39;43.15;;;38.67;;
52888;SDS011;41413;52.770;6.892;2023-04-23T01:18:06;46.53;;;41.67;;
52888;SDS011;41413;52.770;6.892;2023-04-23T01:20:33;42.20;;;37.95;;
52888;SDS011;41413;52.770;6.892;2023-04-23T01:23:03;43.53;;;39.05;;
52888;SDS011;41413;52.770;6.892;2023-04-23T01:25:30;44.55;;;40.00;;
52888;SDS011;41413;52.770;6.892;2023-04-23T01:27:57;45.50;;;40.83;;
52888;SDS011;41413;52.770;6.892;2023-04-23T01:30:25;48.85;;;43.50;;
52888;SDS011;41413;52.770;6.892;2023-04-23T01:32:55;50.33;;;45.22;;
52888;SDS011;41413;52.770;6.892;2023-04-23T01:35:22;52.00;;;46.67;;
52888;SDS011;41413;52.770;6.892;2023-04-23T01:37:50;53.67;;;48.28;;
52888;SDS011;41413;52.770;6.892;2023-04-23T01:40:18;51.00;;;45.55;;
52888;SDS011;41413;52.770;6.892;2023-04-23T01:42:46;52.88;;;47.45;;
52888;SDS011;41413;52.770;6.892;2023-04-23T01:45:13;52.88;;;47.33;;
52888;SDS011;41413;52.770;6.892;2023-04-23T01:47:40;53.65;;;48.20;;
52888;SDS011;41413;52.770;6.892;2023-04-23T01:50:07;51.95;;;46.55;;
52888;SDS011;41413;52.770;6.892;2023-04-23T01:52:35;57.35;;;50.65;;
52888;SDS011;41413;52.770;6.892;2023-04-23T01:55:01;52.70;;;47.55;;
52888;SDS011;41413;52.770;6.892;2023-04-23T01:57:28;54.35;;;49.00;;
52888;SDS011;41413;52.770;6.892;2023-04-23T01:59:57;55.72;;;49.90;;
52888;SDS011;41413;52.770;6.892;2023-04-23T02:02:36;56.13;;;50.10;;
52888;SDS011;41413;52.770;6.892;2023-04-23T02:05:07;58.47;;;52.63;;
52888;SDS011;41413;52.770;6.892;2023-04-23T02:07:36;61.17;;;54.85;;
52888;SDS011;41413;52.770;6.892;2023-04-23T02:10:04;62.15;;;55.55;;
52888;SDS011;41413;52.770;6.892;2023-04-23T02:12:31;60.80;;;54.50;;
52888;SDS011;41413;52.770;6.892;2023-04-23T02:14:58;60.13;;;53.92;;
52888;SDS011;41413;52.770;6.892;2023-04-23T02:17:25;60.97;;;54.67;;
52888;SDS011;41413;52.770;6.892;2023-04-23T02:19:53;62.97;;;56.60;;
52888;SDS011;41413;52.770;6.892;2023-04-23T02:22:21;59.20;;;53.20;;
52888;SDS011;41413;52.770;6.892;2023-04-23T02:24:50;63.17;;;56.35;;
52888;SDS011;41413;52.770;6.892;2023-04-23T02:27:18;64.07;;;57.35;;
52888;SDS011;41413;52.770;6.892;2023-04-23T02:29:45;64.05;;;57.10;;
52888;SDS011;41413;52.770;6.892;2023-04-23T02:32:13;65.53;;;58.72;;
52888;SDS011;41413;52.770;6.892;2023-04-23T02:34:40;60.85;;;53.85;;
52888;SDS011;41413;52.770;6.892;2023-04-23T02:37:07;63.67;;;57.08;;
52888;SDS011;41413;52.770;6.892;2023-04-23T02:39:34;62.10;;;55.63;;
52888;SDS011;41413;52.770;6.892;2023-04-23T02:42:01;67.50;;;60.25;;
52888;SDS011;41413;52.770;6.892;2023-04-23T02:44:27;66.47;;;59.22;;
52888;SDS011;41413;52.770;6.892;2023-04-23T02:46:54;69.85;;;62.63;;
52888;SDS011;41413;52.770;6.892;2023-04-23T02:49:21;64.68;;;58.17;;
52888;SDS011;41413;52.770;6.892;2023-04-23T02:51:48;69.63;;;62.05;;
52888;SDS011;41413;52.770;6.892;2023-04-23T02:54:15;66.10;;;58.88;;
52888;SDS011;41413;52.770;6.892;2023-04-23T02:56:42;70.18;;;62.72;;
52888;SDS011;41413;52.770;6.892;2023-04-23T02:59:09;72.15;;;64.47;;
52888;SDS011;41413;52.770;6.892;2023-04-23T03:01:35;70.20;;;62.50;;
52888;SDS011;41413;52.770;6.892;2023-04-23T03:04:02;73.03;;;65.10;;
52888;SDS011;41413;52.770;6.892;2023-04-23T03:06:30;70.15;;;62.85;;
52888;SDS011;41413;52.770;6.892;2023-04-23T03:08:57;75.45;;;67.53;;
52888;SDS011;41413;52.770;6.892;2023-04-23T03:11:23;72.30;;;64.75;;
52888;SDS011;41413;52.770;6.892;2023-04-23T03:13:50;74.45;;;66.30;;
52888;SDS011;41413;52.770;6.892;2023-04-23T03:16:17;73.45;;;65.57;;
52888;SDS011;41413;52.770;6.892;2023-04-23T03:18:45;71.53;;;63.08;;
52888;SDS011;41413;52.770;6.892;2023-04-23T03:21:11;72.35;;;64.80;;
52888;SDS011;41413;52.770;6.892;2023-04-23T03:23:38;77.30;;;65.97;;
52888;SDS011;41413;52.770;6.892;2023-04-23T03:26:05;75.63;;;67.50;;
52888;SDS011;41413;52.770;6.892;2023-04-23T03:28:32;75.00;;;66.85;;
52888;SDS011;41413;52.770;6.892;2023-04-23T03:30:58;73.32;;;65.43;;
52888;SDS011;41413;52.770;6.892;2023-04-23T03:33:25;72.47;;;64.75;;
52888;SDS011;41413;52.770;6.892;2023-04-23T03:35:52;74.63;;;66.90;;
52888;SDS011;41413;52.770;6.892;2023-04-23T03:38:19;74.72;;;66.65;;
52888;SDS011;41413;52.770;6.892;2023-04-23T03:40:46;73.80;;;65.82;;
52888;SDS011;41413;52.770;6.892;2023-04-23T03:43:12;73.55;;;65.70;;
52888;SDS011;41413;52.770;6.892;2023-04-23T03:45:39;75.07;;;67.28;;
52888;SDS011;41413;52.770;6.892;2023-04-23T03:48:06;72.90;;;65.10;;
52888;SDS011;41413;52.770;6.892;2023-04-23T03:50:32;72.35;;;62.88;;
52888;SDS011;41413;52.770;6.892;2023-04-23T03:53:03;74.57;;;66.78;;
52888;SDS011;41413;52.770;6.892;2023-04-23T03:55:30;82.72;;;61.58;;
52888;SDS011;41413;52.770;6.892;2023-04-23T03:57:57;67.50;;;60.42;;
52888;SDS011;41413;52.770;6.892;2023-04-23T04:00:26;120.80;;;62.63;;
52888;SDS011;41413;52.770;6.892;2023-04-23T04:02:53;128.25;;;66.55;;
52888;SDS011;41413;52.770;6.892;2023-04-23T04:05:21;218.52;;;74.90;;
52888;SDS011;41413;52.770;6.892;2023-04-23T04:07:48;140.75;;;68.05;;
52888;SDS011;41413;52.770;6.892;2023-04-23T04:10:15;151.50;;;69.70;;
52888;SDS011;41413;52.770;6.892;2023-04-23T04:12:41;80.25;;;66.82;;
52888;SDS011;41413;52.770;6.892;2023-04-23T04:15:10;78.40;;;67.68;;
52888;SDS011;41413;52.770;6.892;2023-04-23T04:17:37;75.70;;;67.57;;
52888;SDS011;41413;52.770;6.892;2023-04-23T04:20:04;78.75;;;70.45;;
52888;SDS011;41413;52.770;6.892;2023-04-23T04:22:33;79.32;;;69.40;;
52888;SDS011;41413;52.770;6.892;2023-04-23T04:24:59;79.47;;;70.78;;
52888;SDS011;41413;52.770;6.892;2023-04-23T04:27:26;85.00;;;72.50;;
52888;SDS011;41413;52.770;6.892;2023-04-23T04:29:53;78.20;;;69.50;;
52888;SDS011;41413;52.770;6.892;2023-04-23T04:32:19;82.93;;;73.60;;
52888;SDS011;41413;52.770;6.892;2023-04-23T04:34:47;78.78;;;70.38;;
52888;SDS011;41413;52.770;6.892;2023-04-23T04:37:15;78.93;;;70.55;;
52888;SDS011;41413;52.770;6.892;2023-04-23T04:39:42;80.40;;;71.75;;
52888;SDS011;41413;52.770;6.892;2023-04-23T04:42:09;79.93;;;71.38;;
52888;SDS011;41413;52.770;6.892;2023-04-23T04:44:35;111.82;;;99.93;;
52888;SDS011;41413;52.770;6.892;2023-04-23T04:47:03;85.60;;;75.90;;
52888;SDS011;41413;52.770;6.892;2023-04-23T04:49:30;83.75;;;74.85;;
52888;SDS011;41413;52.770;6.892;2023-04-23T04:51:57;85.30;;;76.03;;
52888;SDS011;41413;52.770;6.892;2023-04-23T04:54:23;84.72;;;75.63;;
52888;SDS011;41413;52.770;6.892;2023-04-23T04:56:50;127.10;;;113.50;;
52888;SDS011;41413;52.770;6.892;2023-04-23T04:59:17;110.10;;;98.13;;
52888;SDS011;41413;52.770;6.892;2023-04-23T05:01:44;86.65;;;75.80;;
52888;SDS011;41413;52.770;6.892;2023-04-23T05:04:11;87.43;;;78.35;;
52888;SDS011;41413;52.770;6.892;2023-04-23T05:06:38;85.70;;;76.28;;
52888;SDS011;41413;52.770;6.892;2023-04-23T05:09:04;87.88;;;77.85;;
52888;SDS011;41413;52.770;6.892;2023-04-23T05:11:31;88.18;;;78.65;;
52888;SDS011;41413;52.770;6.892;2023-04-23T05:13:58;87.75;;;78.47;;
52888;SDS011;41413;52.770;6.892;2023-04-23T05:16:24;86.75;;;77.22;;
52888;SDS011;41413;52.770;6.892;2023-04-23T05:18:51;89.63;;;80.18;;
52888;SDS011;41413;52.770;6.892;2023-04-23T05:21:18;89.45;;;75.88;;
52888;SDS011;41413;52.770;6.892;2023-04-23T05:23:45;87.95;;;78.43;;
52888;SDS011;41413;52.770;6.892;2023-04-23T05:26:12;88.80;;;79.28;;
52888;SDS011;41413;52.770;6.892;2023-04-23T05:28:38;88.60;;;75.93;;
52888;SDS011;41413;52.770;6.892;2023-04-23T05:31:05;83.80;;;74.28;;
52888;SDS011;41413;52.770;6.892;2023-04-23T05:33:32;82.63;;;73.53;;
52888;SDS011;41413;52.770;6.892;2023-04-23T05:36:14;88.68;;;78.15;;
52888;SDS011;41413;52.770;6.892;2023-04-23T05:38:41;84.18;;;74.82;;
52888;SDS011;41413;52.770;6.892;2023-04-23T05:41:08;92.97;;;82.82;;
52888;SDS011;41413;52.770;6.892;2023-04-23T05:43:34;89.82;;;78.05;;
52888;SDS011;41413;52.770;6.892;2023-04-23T05:46:01;85.43;;;76.18;;
52888;SDS011;41413;52.770;6.892;2023-04-23T05:48:29;85.10;;;75.80;;
52888;SDS011;41413;52.770;6.892;2023-04-23T05:50:56;83.63;;;74.70;;
52888;SDS011;41413;52.770;6.892;2023-04-23T05:53:23;83.32;;;74.18;;
52888;SDS011;41413;52.770;6.892;2023-04-23T05:55:51;82.75;;;74.05;;
52888;SDS011;41413;52.770;6.892;2023-04-23T05:58:17;80.40;;;71.68;;
52888;SDS011;41413;52.770;6.892;2023-04-23T06:00:44;85.43;;;75.95;;
52888;SDS011;41413;52.770;6.892;2023-04-23T06:03:11;82.40;;;73.18;;
52888;SDS011;41413;52.770;6.892;2023-04-23T06:05:38;82.78;;;74.03;;
52888;SDS011;41413;52.770;6.892;2023-04-23T06:08:04;79.38;;;70.68;;
52888;SDS011;41413;52.770;6.892;2023-04-23T06:10:31;81.72;;;72.03;;
52888;SDS011;41413;52.770;6.892;2023-04-23T06:12:58;89.55;;;80.00;;
52888;SDS011;41413;52.770;6.892;2023-04-23T06:15:25;79.93;;;71.38;;
52888;SDS011;41413;52.770;6.892;2023-04-23T06:17:52;74.10;;;66.53;;
52888;SDS011;41413;52.770;6.892;2023-04-23T06:20:20;73.13;;;65.55;;
52888;SDS011;41413;52.770;6.892;2023-04-23T06:22:47;73.68;;;65.65;;
52888;SDS011;41413;52.770;6.892;2023-04-23T06:25:14;69.78;;;62.25;;
52888;SDS011;41413;52.770;6.892;2023-04-23T06:27:40;72.03;;;64.30;;
52888;SDS011;41413;52.770;6.892;2023-04-23T06:30:07;68.00;;;60.72;;
52888;SDS011;41413;52.770;6.892;2023-04-23T06:32:34;68.38;;;60.88;;
52888;SDS011;41413;52.770;6.892;2023-04-23T06:35:01;125.90;;;112.78;;
52888;SDS011;41413;52.770;6.892;2023-04-23T06:37:28;81.75;;;73.18;;
52888;SDS011;41413;52.770;6.892;2023-04-23T06:39:57;63.47;;;56.95;;
52888;SDS011;41413;52.770;6.892;2023-04-23T06:42:24;66.22;;;59.05;;
52888;SDS011;41413;52.770;6.892;2023-04-23T06:44:51;56.67;;;50.97;;
52888;SDS011;41413;52.770;6.892;2023-04-23T06:47:18;59.40;;;53.28;;
52888;SDS011;41413;52.770;6.892;2023-04-23T06:49:45;54.88;;;49.25;;
52888;SDS011;41413;52.770;6.892;2023-04-23T06:52:11;59.13;;;53.03;;
52888;SDS011;41413;52.770;6.892;2023-04-23T06:54:38;56.22;;;50.58;;
52888;SDS011;41413;52.770;6.892;2023-04-23T06:57:05;57.90;;;51.95;;
52888;SDS011;41413;52.770;6.892;2023-04-23T06:59:32;56.00;;;50.40;;
52888;SDS011;41413;52.770;6.892;2023-04-23T07:01:59;57.10;;;51.33;;
52888;SDS011;41413;52.770;6.892;2023-04-23T07:04:26;54.53;;;48.63;;
52888;SDS011;41413;52.770;6.892;2023-04-23T07:06:52;55.67;;;50.10;;
52888;SDS011;41413;52.770;6.892;2023-04-23T07:09:20;53.95;;;48.13;;
52888;SDS011;41413;52.770;6.892;2023-04-23T07:11:46;54.20;;;48.30;;
52888;SDS011;41413;52.770;6.892;2023-04-23T07:14:13;54.20;;;48.42;;
52888;SDS011;41413;52.770;6.892;2023-04-23T07:16:40;53.30;;;47.53;;
52888;SDS011;41413;52.770;6.892;2023-04-23T07:19:07;50.47;;;45.42;;
52888;SDS011;41413;52.770;6.892;2023-04-23T07:21:34;52.35;;;47.15;;
52888;SDS011;41413;52.770;6.892;2023-04-23T07:24:01;49.67;;;44.58;;
52888;SDS011;41413;52.770;6.892;2023-04-23T07:26:32;48.47;;;43.42;;
52888;SDS011;41413;52.770;6.892;2023-04-23T07:29:00;51.70;;;43.80;;
52888;SDS011;41413;52.770;6.892;2023-04-23T07:31:27;83.03;;;74.55;;
52888;SDS011;41413;52.770;6.892;2023-04-23T07:33:54;50.95;;;45.83;;
52888;SDS011;41413;52.770;6.892;2023-04-23T07:36:22;48.72;;;43.67;;
52888;SDS011;41413;52.770;6.892;2023-04-23T07:38:48;48.05;;;43.00;;
52888;SDS011;41413;52.770;6.892;2023-04-23T07:41:16;47.05;;;42.45;;
52888;SDS011;41413;52.770;6.892;2023-04-23T07:43:43;40.35;;;36.42;;
52888;SDS011;41413;52.770;6.892;2023-04-23T07:46:10;41.25;;;37.05;;
52888;SDS011;41413;52.770;6.892;2023-04-23T07:48:37;39.15;;;35.25;;
52888;SDS011;41413;52.770;6.892;2023-04-23T07:51:04;38.75;;;34.92;;
52888;SDS011;41413;52.770;6.892;2023-04-23T07:53:31;38.20;;;34.22;;
52888;SDS011;41413;52.770;6.892;2023-04-23T07:55:58;86.95;;;78.25;;
52888;SDS011;41413;52.770;6.892;2023-04-23T07:58:25;36.80;;;33.00;;
52888;SDS011;41413;52.770;6.892;2023-04-23T08:00:52;37.25;;;33.40;;
52888;SDS011;41413;52.770;6.892;2023-04-23T08:03:19;36.20;;;31.33;;
52888;SDS011;41413;52.770;6.892;2023-04-23T08:05:47;37.00;;;33.28;;
52888;SDS011;41413;52.770;6.892;2023-04-23T08:08:14;36.58;;;32.88;;
52888;SDS011;41413;52.770;6.892;2023-04-23T08:10:41;33.92;;;30.63;;
52888;SDS011;41413;52.770;6.892;2023-04-23T08:13:07;35.83;;;32.08;;
52888;SDS011;41413;52.770;6.892;2023-04-23T08:15:34;35.45;;;32.05;;
52888;SDS011;41413;52.770;6.892;2023-04-23T08:18:02;35.08;;;31.55;;
52888;SDS011;41413;52.770;6.892;2023-04-23T08:20:29;36.53;;;32.83;;
52888;SDS011;41413;52.770;6.892;2023-04-23T08:22:57;37.35;;;33.50;;
52888;SDS011;41413;52.770;6.892;2023-04-23T08:25:24;35.33;;;31.80;;
52888;SDS011;41413;52.770;6.892;2023-04-23T08:27:51;33.60;;;30.15;;
52888;SDS011;41413;52.770;6.892;2023-04-23T08:30:17;34.22;;;30.92;;
52888;SDS011;41413;52.770;6.892;2023-04-23T08:32:45;32.85;;;29.65;;
52888;SDS011;41413;52.770;6.892;2023-04-23T08:35:15;39.50;;;35.38;;
52888;SDS011;41413;52.770;6.892;2023-04-23T08:37:41;38.25;;;34.40;;
52888;SDS011;41413;52.770;6.892;2023-04-23T08:40:08;29.65;;;26.92;;
52888;SDS011;41413;52.770;6.892;2023-04-23T08:45:23;27.38;;;24.73;;
52888;SDS011;41413;52.770;6.892;2023-04-23T08:47:51;28.42;;;25.42;;
52888;SDS011;41413;52.770;6.892;2023-04-23T08:50:26;26.02;;;23.63;;
52888;SDS011;41413;52.770;6.892;2023-04-23T08:52:55;29.30;;;26.52;;
52888;SDS011;41413;52.770;6.892;2023-04-23T08:55:23;23.67;;;21.45;;
52888;SDS011;41413;52.770;6.892;2023-04-23T08:57:50;21.67;;;19.58;;
52888;SDS011;41413;52.770;6.892;2023-04-23T09:00:18;25.08;;;20.42;;
52888;SDS011;41413;52.770;6.892;2023-04-23T09:02:46;23.20;;;20.90;;
52888;SDS011;41413;52.770;6.892;2023-04-23T09:05:14;22.42;;;20.15;;
52888;SDS011;41413;52.770;6.892;2023-04-23T09:07:41;21.83;;;19.80;;
52888;SDS011;41413;52.770;6.892;2023-04-23T09:10:09;22.13;;;19.95;;
52888;SDS011;41413;52.770;6.892;2023-04-23T09:12:40;20.88;;;18.88;;
52888;SDS011;41413;52.770;6.892;2023-04-23T09:15:08;18.67;;;16.95;;
52888;SDS011;41413;52.770;6.892;2023-04-23T09:17:39;17.13;;;15.52;;
52888;SDS011;41413;52.770;6.892;2023-04-23T09:20:09;16.08;;;14.68;;
52888;SDS011;41413;52.770;6.892;2023-04-23T09:25:14;16.80;;;15.20;;
52888;SDS011;41413;52.770;6.892;2023-04-23T09:27:46;16.13;;;14.52;;
52888;SDS011;41413;52.770;6.892;2023-04-23T09:30:16;15.88;;;14.38;;
52888;SDS011;41413;52.770;6.892;2023-04-23T09:32:44;14.90;;;13.23;;
52888;SDS011;41413;52.770;6.892;2023-04-23T09:35:12;13.05;;;11.45;;
52888;SDS011;41413;52.770;6.892;2023-04-23T09:37:46;16.58;;;12.25;;
52888;SDS011;41413;52.770;6.892;2023-04-23T09:40:18;13.07;;;11.27;;
52888;SDS011;41413;52.770;6.892;2023-04-23T09:42:48;13.38;;;11.88;;
52888;SDS011;41413;52.770;6.892;2023-04-23T09:45:18;12.70;;;10.98;;
52888;SDS011;41413;52.770;6.892;2023-04-23T09:47:49;11.88;;;10.60;;
52888;SDS011;41413;52.770;6.892;2023-04-23T09:50:17;13.55;;;12.05;;
52888;SDS011;41413;52.770;6.892;2023-04-23T09:52:52;10.73;;;9.73;;
52888;SDS011;41413;52.770;6.892;2023-04-23T09:55:30;11.82;;;10.73;;
52888;SDS011;41413;52.770;6.892;2023-04-23T09:58:02;11.35;;;10.20;;
52888;SDS011;41413;52.770;6.892;2023-04-23T10:00:36;11.13;;;8.93;;
52888;SDS011;41413;52.770;6.892;2023-04-23T10:03:05;35.15;;;31.58;;
52888;SDS011;41413;52.770;6.892;2023-04-23T10:05:37;16.77;;;15.18;;
52888;SDS011;41413;52.770;6.892;2023-04-23T10:08:26;14.73;;;13.32;;
52888;SDS011;41413;52.770;6.892;2023-04-23T10:10:53;9.35;;;8.55;;
52888;SDS011;41413;52.770;6.892;2023-04-23T10:13:39;8.07;;;6.63;;
52888;SDS011;41413;52.770;6.892;2023-04-23T10:16:07;8.35;;;7.63;;
52888;SDS011;41413;52.770;6.892;2023-04-23T10:18:49;8.65;;;7.07;;
52888;SDS011;41413;52.770;6.892;2023-04-23T10:21:17;11.52;;;8.02;;
52888;SDS011;41413;52.770;6.892;2023-04-23T10:23:46;8.63;;;7.88;;
52888;SDS011;41413;52.770;6.892;2023-04-23T10:26:15;9.63;;;8.75;;
52888;SDS011;41413;52.770;6.892;2023-04-23T10:28:44;14.52;;;8.40;;
52888;SDS011;41413;52.770;6.892;2023-04-23T10:31:13;6.72;;;6.10;;
52888;SDS011;41413;52.770;6.892;2023-04-23T10:33:41;28.88;;;25.83;;
52888;SDS011;41413;52.770;6.892;2023-04-23T10:36:23;7.88;;;7.07;;
52888;SDS011;41413;52.770;6.892;2023-04-23T10:38:52;7.20;;;6.18;;
52888;SDS011;41413;52.770;6.892;2023-04-23T10:41:24;8.57;;;7.20;;
52888;SDS011;41413;52.770;6.892;2023-04-23T10:43:59;10.38;;;7.10;;
52888;SDS011;41413;52.770;6.892;2023-04-23T10:46:26;7.95;;;7.35;;
52888;SDS011;41413;52.770;6.892;2023-04-23T10:49:13;8.32;;;6.43;;
52888;SDS011;41413;52.770;6.892;2023-04-23T10:51:41;6.15;;;5.18;;
52888;SDS011;41413;52.770;6.892;2023-04-23T10:54:32;5.68;;;4.55;;
52888;SDS011;41413;52.770;6.892;2023-04-23T10:57:01;6.25;;;5.07;;
52888;SDS011;41413;52.770;6.892;2023-04-23T10:59:29;6.07;;;4.85;;
52888;SDS011;41413;52.770;6.892;2023-04-23T11:02:05;7.07;;;5.05;;
52888;SDS011;41413;52.770;6.892;2023-04-23T11:04:34;6.22;;;5.07;;
52888;SDS011;41413;52.770;6.892;2023-04-23T11:07:05;7.95;;;5.65;;
52888;SDS011;41413;52.770;6.892;2023-04-23T11:12:00;7.60;;;4.60;;
52888;SDS011;41413;52.770;6.892;2023-04-23T11:14:34;4.47;;;4.07;;
52888;SDS011;41413;52.770;6.892;2023-04-23T11:17:05;7.57;;;4.45;;
52888;SDS011;41413;52.770;6.892;2023-04-23T11:19:34;5.57;;;4.60;;
52888;SDS011;41413;52.770;6.892;2023-04-23T11:22:04;5.50;;;4.22;;
52888;SDS011;41413;52.770;6.892;2023-04-23T11:24:42;6.63;;;3.50;;
52888;SDS011;41413;52.770;6.892;2023-04-23T11:27:10;4.22;;;3.42;;
52888;SDS011;41413;52.770;6.892;2023-04-23T11:29:42;4.90;;;3.63;;
52888;SDS011;41413;52.770;6.892;2023-04-23T11:32:10;6.32;;;4.00;;
52888;SDS011;41413;52.770;6.892;2023-04-23T11:34:39;7.93;;;3.55;;
52888;SDS011;41413;52.770;6.892;2023-04-23T11:37:09;4.35;;;3.00;;
52888;SDS011;41413;52.770;6.892;2023-04-23T11:39:37;3.95;;;3.60;;
52888;SDS011;41413;52.770;6.892;2023-04-23T11:42:10;5.43;;;4.15;;
52888;SDS011;41413;52.770;6.892;2023-04-23T11:44:38;4.35;;;3.58;;
52888;SDS011;41413;52.770;6.892;2023-04-23T11:47:06;6.88;;;3.05;;
52888;SDS011;41413;52.770;6.892;2023-04-23T11:49:36;4.35;;;3.28;;
52888;SDS011;41413;52.770;6.892;2023-04-23T11:52:03;5.00;;;3.63;;
52888;SDS011;41413;52.770;6.892;2023-04-23T11:54:30;5.53;;;3.60;;
52888;SDS011;41413;52.770;6.892;2023-04-23T11:56:58;4.05;;;3.25;;
52888;SDS011;41413;52.770;6.892;2023-04-23T11:59:25;4.47;;;3.00;;
52888;SDS011;41413;52.770;6.892;2023-04-23T12:01:54;5.13;;;3.53;;
52888;SDS011;41413;52.770;6.892;2023-04-23T12:04:26;4.13;;;3.25;;
52888;SDS011;41413;52.770;6.892;2023-04-23T12:06:55;15.50;;;12.20;;
52888;SDS011;41413;52.770;6.892;2023-04-23T12:09:24;21.58;;;19.25;;
52888;SDS011;41413;52.770;6.892;2023-04-23T12:11:52;4.22;;;3.03;;
52888;SDS011;41413;52.770;6.892;2023-04-23T12:14:23;5.00;;;3.75;;
52888;SDS011;41413;52.770;6.892;2023-04-23T12:16:54;5.50;;;3.22;;
52888;SDS011;41413;52.770;6.892;2023-04-23T12:19:26;5.30;;;2.83;;
52888;SDS011;41413;52.770;6.892;2023-04-23T12:24:25;3.35;;;2.95;;
52888;SDS011;41413;52.770;6.892;2023-04-23T12:26:53;4.13;;;2.85;;
52888;SDS011;41413;52.770;6.892;2023-04-23T12:29:23;2.78;;;2.20;;
52888;SDS011;41413;52.770;6.892;2023-04-23T12:31:51;5.65;;;3.08;;
52888;SDS011;41413;52.770;6.892;2023-04-23T12:34:20;3.85;;;2.80;;
52888;SDS011;41413;52.770;6.892;2023-04-23T12:36:48;5.15;;;2.83;;
52888;SDS011;41413;52.770;6.892;2023-04-23T12:39:20;3.60;;;2.35;;
52888;SDS011;41413;52.770;6.892;2023-04-23T12:41:51;7.25;;;2.90;;
52888;SDS011;41413;52.770;6.892;2023-04-23T12:44:19;8.30;;;4.30;;
52888;SDS011;41413;52.770;6.892;2023-04-23T12:46:53;6.03;;;3.55;;
52888;SDS011;41413;52.770;6.892;2023-04-23T12:49:23;6.60;;;4.07;;
52888;SDS011;41413;52.770;6.892;2023-04-23T12:51:52;6.53;;;3.00;;
52888;SDS011;41413;52.770;6.892;2023-04-23T12:54:26;7.75;;;4.22;;
52888;SDS011;41413;52.770;6.892;2023-04-23T12:56:54;6.88;;;3.78;;
52888;SDS011;41413;52.770;6.892;2023-04-23T12:59:21;3.85;;;2.95;;
52888;SDS011;41413;52.770;6.892;2023-04-23T13:01:49;4.65;;;3.08;;
52888;SDS011;41413;52.770;6.892;2023-04-23T13:04:16;5.32;;;2.83;;
52888;SDS011;41413;52.770;6.892;2023-04-23T13:06:43;5.03;;;2.88;;
52888;SDS011;41413;52.770;6.892;2023-04-23T13:09:09;8.40;;;3.83;;
52888;SDS011;41413;52.770;6.892;2023-04-23T13:11:36;30.52;;;26.92;;
52888;SDS011;41413;52.770;6.892;2023-04-23T13:14:04;14.18;;;11.73;;
52888;SDS011;41413;52.770;6.892;2023-04-23T13:16:31;5.03;;;2.80;;
52888;SDS011;41413;52.770;6.892;2023-04-23T13:18:58;7.10;;;2.70;;
52888;SDS011;41413;52.770;6.892;2023-04-23T13:21:26;4.82;;;3.22;;
52888;SDS011;41413;52.770;6.892;2023-04-23T13:23:52;7.70;;;3.15;;
52888;SDS011;41413;52.770;6.892;2023-04-23T13:26:19;9.07;;;4.75;;
52888;SDS011;41413;52.770;6.892;2023-04-23T13:28:46;5.93;;;3.33;;
52888;SDS011;41413;52.770;6.892;2023-04-23T13:31:13;5.80;;;3.10;;
52888;SDS011;41413;52.770;6.892;2023-04-23T13:33:41;6.13;;;3.05;;
52888;SDS011;41413;52.770;6.892;2023-04-23T13:36:08;9.30;;;3.38;;
52888;SDS011;41413;52.770;6.892;2023-04-23T13:38:35;6.80;;;4.00;;
52888;SDS011;41413;52.770;6.892;2023-04-23T13:41:02;6.80;;;3.42;;
52888;SDS011;41413;52.770;6.892;2023-04-23T13:43:29;3.85;;;2.58;;
52888;SDS011;41413;52.770;6.892;2023-04-23T13:45:56;11.55;;;3.22;;
52888;SDS011;41413;52.770;6.892;2023-04-23T13:48:23;13.82;;;12.23;;
52888;SDS011;41413;52.770;6.892;2023-04-23T13:50:54;6.43;;;3.65;;
52888;SDS011;41413;52.770;6.892;2023-04-23T13:53:20;6.05;;;3.13;;
52888;SDS011;41413;52.770;6.892;2023-04-23T13:55:47;6.25;;;3.60;;
52888;SDS011;41413;52.770;6.892;2023-04-23T13:58:14;7.05;;;2.70;;
52888;SDS011;41413;52.770;6.892;2023-04-23T14:00:41;4.57;;;2.38;;
52888;SDS011;41413;52.770;6.892;2023-04-23T14:03:08;3.10;;;2.25;;
52888;SDS011;41413;52.770;6.892;2023-04-23T14:05:36;7.18;;;4.70;;
52888;SDS011;41413;52.770;6.892;2023-04-23T14:08:03;5.35;;;2.75;;
52888;SDS011;41413;52.770;6.892;2023-04-23T14:10:30;3.05;;;2.75;;
52888;SDS011;41413;52.770;6.892;2023-04-23T14:12:57;5.22;;;3.53;;
52888;SDS011;41413;52.770;6.892;2023-04-23T14:15:24;5.28;;;3.03;;
52888;SDS011;41413;52.770;6.892;2023-04-23T14:17:51;6.10;;;3.85;;
52888;SDS011;41413;52.770;6.892;2023-04-23T14:20:18;8.65;;;3.22;;
52888;SDS011;41413;52.770;6.892;2023-04-23T14:22:47;10.15;;;9.32;;
52888;SDS011;41413;52.770;6.892;2023-04-23T14:25:51;5.80;;;3.83;;
52888;SDS011;41413;52.770;6.892;2023-04-23T14:28:28;7.07;;;3.22;;
52888;SDS011;41413;52.770;6.892;2023-04-23T14:31:00;7.07;;;3.53;;
52888;SDS011;41413;52.770;6.892;2023-04-23T14:33:27;5.47;;;3.30;;
52888;SDS011;41413;52.770;6.892;2023-04-23T14:35:53;5.18;;;3.30;;
52888;SDS011;41413;52.770;6.892;2023-04-23T14:38:20;7.85;;;4.10;;
52888;SDS011;41413;52.770;6.892;2023-04-23T14:40:48;4.47;;;3.17;;
52888;SDS011;41413;52.770;6.892;2023-04-23T14:43:14;4.38;;;2.65;;
52888;SDS011;41413;52.770;6.892;2023-04-23T14:45:41;6.13;;;3.53;;